SVHD weather

Hacienda El Calvario Airport
Zulia, Venezuela

Public forecast

Using degrees Celsius for public forecast. Weather courtesy of forecast.io.

Closest aviation weather report (METAR) to Hacienda El Calvario Airport

Report is more than 6 hours old.

Closest report is Alfonso L√≥pez Pumarejo Airport, 52.4 nm (97.0 km) NW. Retrieved 2020/07/12 12:00 UTC (8 hours ago):

SKVP 121200Z 06006KT 9999 VCSH SCT015 BKN100 25/25 A2994 REDZ RMK VCSH/S/SE

Closest aviation forecast (TAF) to Hacienda El Calvario Airport

Forecast is more than 12 hours old.

Closest forecast is Villa del Rosario Airport, 29.1 nm (53.8 km) NNE. Retrieved 2019/09/09 18:00 UTC (10 months ago):

TAF SVVS 091700Z 0918/1018 18004KT 9999 BKN016 TX30/0919Z TN22/1008Z TEMPO 0919/0921 9000 DZ TEMPO 0922/1002 24005KT 9999 SCT016 SCT150